createdAt,value
2019-03-13T00:01:54.390Z,33.1
2019-03-13T00:17:07.374Z,32.8
2019-03-13T00:32:20.474Z,33
2019-03-13T00:47:32.076Z,32.2
2019-03-13T01:02:46.607Z,26.9
2019-03-13T01:18:00.192Z,26.5
2019-03-13T01:33:13.649Z,28
2019-03-13T01:48:18.906Z,27.9
2019-03-13T02:03:40.733Z,28.6
2019-03-13T02:18:54.190Z,29
2019-03-13T02:34:07.788Z,39.1
2019-03-13T02:49:21.321Z,46.5
2019-03-13T03:04:33.157Z,48
2019-03-13T03:19:47.942Z,46.9
2019-03-13T03:35:01.859Z,46.2
2019-03-13T03:50:14.627Z,44.9
2019-03-13T04:05:19.603Z,44.9
2019-03-13T04:20:41.378Z,53.6
2019-03-13T04:35:54.732Z,55.2
2019-03-13T04:51:07.870Z,57
2019-03-13T05:06:20.723Z,57.7
2019-03-13T05:21:32.441Z,56.4
2019-03-13T05:36:46.463Z,54.4
2019-03-13T05:51:59.063Z,50.7
2019-03-13T06:07:12.091Z,52.5
2019-03-13T06:22:16.535Z,53.5
2019-03-13T06:37:36.752Z,51
2019-03-13T06:52:49.425Z,47.6
2019-03-13T07:08:02.155Z,38.5
2019-03-13T07:23:09.091Z,33.8
2019-03-13T07:38:28.010Z,31.1
2019-03-13T07:53:41.171Z,30.8
2019-03-13T08:08:54.357Z,30.4
2019-03-13T08:24:03.455Z,29.8
2019-03-13T08:39:21.174Z,28.4
2019-03-13T08:54:34.816Z,27.8
2019-03-13T09:09:48.508Z,27.5
2019-03-13T09:24:52.685Z,26.9
2019-03-13T09:40:15.984Z,26.2
2019-03-13T09:55:29.888Z,25.4
2019-03-13T10:10:43.742Z,25.9
2019-03-13T10:25:57.586Z,26.5
2019-03-13T10:41:10.158Z,25.2
2019-03-13T10:56:26.142Z,25.5
2019-03-13T11:11:40.219Z,24.2
2019-03-13T11:26:54.320Z,25.9
2019-03-13T11:41:59.938Z,27.2
2019-03-13T11:57:22.569Z,27.4
2019-03-13T12:12:37.105Z,26.8
2019-03-13T12:27:51.420Z,27.9
2019-03-13T12:43:05.587Z,28.4
2019-03-13T12:58:18.531Z,24.4
2019-03-13T13:13:35.416Z,22.1
2019-03-13T13:28:50.881Z,20.6
2019-03-13T13:44:06.357Z,19.3
2019-03-13T13:59:10.536Z,20.1
2019-03-13T14:14:36.178Z,21.9
2019-03-13T14:29:50.890Z,21.9
2019-03-13T14:45:05.571Z,22
2019-03-13T15:00:20.068Z,24.3
2019-03-13T15:15:29.503Z,25.6
2019-03-13T15:30:48.443Z,25.6
2019-03-13T15:46:02.680Z,26.2
2019-03-13T16:01:16.685Z,27.2
2019-03-13T16:16:19.191Z,26.6
2019-03-13T16:31:46.337Z,27.1
2019-03-13T16:46:58.538Z,28.3
2019-03-13T17:02:12.438Z,28.4
2019-03-13T17:17:26.200Z,28.4
2019-03-13T17:32:35.285Z,28.1
2019-03-13T17:47:53.853Z,28.6
2019-03-13T18:03:07.682Z,28.6
2019-03-13T18:18:21.328Z,29.1
2019-03-13T18:33:23.278Z,30.1
2019-03-13T18:48:48.607Z,31.1
2019-03-13T19:04:02.195Z,32
2019-03-13T19:19:15.843Z,32.9
2019-03-13T19:34:29.243Z,33.7
2019-03-13T19:49:38.016Z,35.3
2019-03-13T20:04:56.318Z,37.5
2019-03-13T20:20:09.771Z,39.2
2019-03-13T20:35:23.119Z,44.9
2019-03-13T20:50:37.760Z,45.2
2019-03-13T21:05:49.924Z,44.5
2019-03-13T21:21:02.943Z,44.6
2019-03-13T21:36:16.265Z,46.4
2019-03-13T21:51:29.674Z,45.5
2019-03-13T22:06:38.421Z,45.9
2019-03-13T22:21:56.882Z,46.6
2019-03-13T22:37:09.501Z,47.5
2019-03-13T22:52:22.584Z,47.4
2019-03-13T23:07:24.685Z,48.5
2019-03-13T23:22:49.198Z,48.7
2019-03-13T23:38:02.241Z,49.5
2019-03-13T23:53:15.375Z,50.8
